createdAt,value
2019-03-06T00:00:56.073Z,21.41
2019-03-06T00:01:56.058Z,21.51
2019-03-06T00:02:56.047Z,21.44
2019-03-06T00:03:56.037Z,21.54
2019-03-06T00:04:56.031Z,21.53
2019-03-06T00:05:56.015Z,21.46
2019-03-06T00:06:56.003Z,21.54
2019-03-06T00:07:55.991Z,21.45
2019-03-06T00:08:55.982Z,21.44
2019-03-06T00:09:55.969Z,21.38
2019-03-06T00:10:55.980Z,21.45
2019-03-06T00:11:55.948Z,21.41
2019-03-06T00:12:55.936Z,21.42
2019-03-06T00:13:55.926Z,21.44
2019-03-06T00:14:55.913Z,21.42
2019-03-06T00:15:55.903Z,21.45
2019-03-06T00:16:55.903Z,21.48
2019-03-06T00:17:55.881Z,21.45
2019-03-06T00:18:55.870Z,21.45
2019-03-06T00:19:55.858Z,21.44
2019-03-06T00:20:55.854Z,21.41
2019-03-06T00:21:55.837Z,21.45
2019-03-06T00:22:55.833Z,21.45
2019-03-06T00:23:55.813Z,21.44
2019-03-06T00:24:55.804Z,21.35
2019-03-06T00:25:55.792Z,21.41
2019-03-06T00:26:55.781Z,21.41
2019-03-06T00:27:55.771Z,21.44
2019-03-06T00:28:56.084Z,21.41
2019-03-06T00:29:55.747Z,21.51
2019-03-06T00:30:55.737Z,21.44
2019-03-06T00:31:55.725Z,21.45
2019-03-06T00:32:55.717Z,21.41
2019-03-06T00:33:55.702Z,21.38
2019-03-06T00:34:55.976Z,21.41
2019-03-06T00:35:55.681Z,21.44
2019-03-06T00:36:55.671Z,21.41
2019-03-06T00:37:55.659Z,21.39
2019-03-06T00:38:55.647Z,21.46
2019-03-06T00:39:55.637Z,21.45
2019-03-06T00:40:55.631Z,21.42
2019-03-06T00:41:55.615Z,21.39
2019-03-06T00:42:55.604Z,21.41
2019-03-06T00:43:55.592Z,21.46
2019-03-06T00:44:55.580Z,21.44
2019-03-06T00:45:55.570Z,21.42
2019-03-06T00:46:55.566Z,21.48
2019-03-06T00:47:55.547Z,21.45
2019-03-06T00:48:55.536Z,21.42
2019-03-06T00:49:55.526Z,21.51
2019-03-06T00:50:55.518Z,21.32
2019-03-06T00:51:55.503Z,21.41
2019-03-06T00:52:55.499Z,21.50
2019-03-06T00:53:55.480Z,21.45
2019-03-06T00:54:55.470Z,21.48
2019-03-06T00:55:55.460Z,21.45
2019-03-06T00:56:55.448Z,21.45
2019-03-06T00:57:55.436Z,21.45
2019-03-06T00:58:55.713Z,21.45
2019-03-06T00:59:55.415Z,21.39
2019-03-06T01:00:55.404Z,21.38
2019-03-06T01:01:55.392Z,21.44
2019-03-06T01:02:55.382Z,21.45
2019-03-06T01:03:55.378Z,21.48
2019-03-06T01:04:55.381Z,21.36
2019-03-06T01:05:55.349Z,21.41
2019-03-06T01:06:55.337Z,21.38
2019-03-06T01:07:55.328Z,21.34
2019-03-06T01:08:55.315Z,21.38
2019-03-06T01:09:55.303Z,21.41
2019-03-06T01:10:55.301Z,21.41
2019-03-06T01:11:55.281Z,21.32
2019-03-06T01:12:55.272Z,21.39
2019-03-06T01:13:55.260Z,21.39
2019-03-06T01:14:55.248Z,21.39
2019-03-06T01:15:55.236Z,21.45
2019-03-06T01:16:55.233Z,21.44
2019-03-06T01:17:55.214Z,21.45
2019-03-06T01:18:55.203Z,21.44
2019-03-06T01:19:55.192Z,21.50
2019-03-06T01:20:55.182Z,21.41
2019-03-06T01:21:55.171Z,21.41
2019-03-06T01:22:55.169Z,21.44
2019-03-06T01:23:55.147Z,21.42
2019-03-06T01:24:55.137Z,21.44
2019-03-06T01:25:55.126Z,21.38
2019-03-06T01:26:55.117Z,21.44
2019-03-06T01:27:55.104Z,21.44
2019-03-06T01:28:55.100Z,21.48
2019-03-06T01:29:55.081Z,21.50
2019-03-06T01:30:55.072Z,21.46
2019-03-06T01:31:55.059Z,21.50
2019-03-06T01:32:55.049Z,21.46
2019-03-06T01:33:55.037Z,21.48
2019-03-06T01:34:55.299Z,21.50
2019-03-06T01:35:55.015Z,21.46
2019-03-06T01:36:55.005Z,21.57
2019-03-06T01:37:55.046Z,21.54
2019-03-06T01:38:54.986Z,21.54
2019-03-06T01:39:54.979Z,21.53
2019-03-06T01:40:54.980Z,21.56
2019-03-06T01:41:54.949Z,21.54
2019-03-06T01:42:54.937Z,21.57
2019-03-06T01:43:54.927Z,21.59
2019-03-06T01:44:54.916Z,21.56
2019-03-06T01:45:54.904Z,21.61
2019-03-06T01:46:55.219Z,21.61
2019-03-06T01:47:54.882Z,21.67
2019-03-06T01:48:54.870Z,21.71
2019-03-06T01:49:54.863Z,21.63
2019-03-06T01:50:54.848Z,21.66
2019-03-06T01:51:54.837Z,21.67
2019-03-06T01:52:54.834Z,21.74
2019-03-06T01:53:54.815Z,21.69
2019-03-06T01:54:54.806Z,21.71
2019-03-06T01:55:54.793Z,21.69
2019-03-06T01:56:54.782Z,21.71
2019-03-06T01:57:54.770Z,21.75
2019-03-06T01:58:55.268Z,21.71
2019-03-06T01:59:54.748Z,21.76
2019-03-06T02:00:54.738Z,21.74
2019-03-06T02:01:54.728Z,21.81
2019-03-06T02:02:54.715Z,21.79
2019-03-06T02:03:54.705Z,21.74
2019-03-06T02:04:54.699Z,21.75
2019-03-06T02:05:54.683Z,21.79
2019-03-06T02:06:54.672Z,21.76
2019-03-06T02:07:54.661Z,21.74
2019-03-06T02:08:54.649Z,21.82
2019-03-06T02:09:54.641Z,21.78
2019-03-06T02:10:54.962Z,21.90
2019-03-06T02:11:54.616Z,21.83
2019-03-06T02:12:54.604Z,21.79
2019-03-06T02:13:54.594Z,21.78
2019-03-06T02:14:54.583Z,21.82
2019-03-06T02:15:54.574Z,21.90
2019-03-06T02:16:54.581Z,21.91
2019-03-06T02:17:54.549Z,21.90
2019-03-06T02:18:54.541Z,21.82
2019-03-06T02:19:54.527Z,21.92
2019-03-06T02:20:54.518Z,21.88
2019-03-06T02:21:54.508Z,21.88
2019-03-06T02:22:54.501Z,21.83
2019-03-06T02:23:54.483Z,21.82
2019-03-06T02:24:54.471Z,21.92
2019-03-06T02:25:54.460Z,21.83
2019-03-06T02:26:54.452Z,21.92
2019-03-06T02:27:54.438Z,21.88
2019-03-06T02:28:54.437Z,21.90
2019-03-06T02:29:54.416Z,21.94
2019-03-06T02:30:54.404Z,21.91
2019-03-06T02:31:54.395Z,21.88
2019-03-06T02:32:54.385Z,21.97
2019-03-06T02:33:54.374Z,21.95
2019-03-06T02:34:54.687Z,21.99
2019-03-06T02:35:54.353Z,21.99
2019-03-06T02:36:54.340Z,21.91
2019-03-06T02:37:54.339Z,21.98
2019-03-06T02:38:54.318Z,22.01
2019-03-06T02:39:54.305Z,21.99
2019-03-06T02:40:54.586Z,21.98
2019-03-06T02:41:54.287Z,21.94
2019-03-06T02:42:54.272Z,22.02
2019-03-06T02:43:54.261Z,21.94
2019-03-06T02:44:54.251Z,21.95
2019-03-06T02:45:54.239Z,21.99
2019-03-06T02:46:54.236Z,21.94
2019-03-06T02:47:54.217Z,22.02
2019-03-06T02:48:54.206Z,21.98
2019-03-06T02:49:54.197Z,21.97
2019-03-06T02:50:54.200Z,21.99
2019-03-06T02:51:54.179Z,21.97
2019-03-06T02:52:54.490Z,21.99
2019-03-06T02:53:54.150Z,21.97
2019-03-06T02:54:54.139Z,22.01
2019-03-06T02:55:54.129Z,22.01
2019-03-06T02:56:54.118Z,22.02
2019-03-06T02:57:54.111Z,21.97
2019-03-06T02:58:54.426Z,21.95
2019-03-06T02:59:54.085Z,21.97
2019-03-06T03:00:54.074Z,22.07
2019-03-06T03:01:54.062Z,21.97
2019-03-06T03:02:54.052Z,21.94
2019-03-06T03:03:54.040Z,22.02
2019-03-06T03:04:54.034Z,21.95
2019-03-06T03:05:54.017Z,21.94
2019-03-06T03:06:54.007Z,21.94
2019-03-06T03:07:53.997Z,21.98
2019-03-06T03:08:53.985Z,21.95
2019-03-06T03:09:53.974Z,21.99
2019-03-06T03:10:53.987Z,21.95
2019-03-06T03:11:53.951Z,21.99
2019-03-06T03:12:53.940Z,21.95
2019-03-06T03:13:53.930Z,21.97
2019-03-06T03:14:53.919Z,21.97
2019-03-06T03:15:53.917Z,21.97
2019-03-06T03:16:53.903Z,21.88
2019-03-06T03:17:53.886Z,22.01
2019-03-06T03:18:53.875Z,21.95
2019-03-06T03:19:53.864Z,21.99
2019-03-06T03:20:53.853Z,22.04
2019-03-06T03:21:53.842Z,21.97
2019-03-06T03:22:53.837Z,21.97
2019-03-06T03:23:53.828Z,21.94
2019-03-06T03:24:53.809Z,21.88
2019-03-06T03:25:53.797Z,21.98
2019-03-06T03:26:53.788Z,22.01
2019-03-06T03:27:53.776Z,21.97
2019-03-06T03:28:53.784Z,21.97
2019-03-06T03:29:53.768Z,22.02
2019-03-06T03:30:53.749Z,21.82
2019-03-06T03:31:53.744Z,21.94
2019-03-06T03:32:53.722Z,21.97
2019-03-06T03:33:53.723Z,21.95
2019-03-06T03:34:54.040Z,21.97
2019-03-06T03:35:53.686Z,21.98
2019-03-06T03:36:53.682Z,22.01
2019-03-06T03:37:53.666Z,22.04
2019-03-06T03:38:53.652Z,21.94
2019-03-06T03:39:53.641Z,21.98
2019-03-06T03:40:53.638Z,21.97
2019-03-06T03:41:53.619Z,21.99
2019-03-06T03:42:53.614Z,21.97
2019-03-06T03:43:53.598Z,22.01
2019-03-06T03:44:53.585Z,21.97
2019-03-06T03:45:53.581Z,21.99
2019-03-06T03:46:53.853Z,21.99
2019-03-06T03:47:53.554Z,22.01
2019-03-06T03:48:53.546Z,21.97
2019-03-06T03:49:53.535Z,21.97
2019-03-06T03:50:53.520Z,21.97
2019-03-06T03:51:53.509Z,22.04
2019-03-06T03:52:53.506Z,22.04
2019-03-06T03:53:53.487Z,22.01
2019-03-06T03:54:53.475Z,21.98
2019-03-06T03:55:53.470Z,21.99
2019-03-06T03:56:53.455Z,21.98
2019-03-06T03:57:53.443Z,21.95
2019-03-06T03:58:53.439Z,21.98
2019-03-06T03:59:55.701Z,21.92
2019-03-06T04:00:53.411Z,22.01
2019-03-06T04:01:53.402Z,21.94
2019-03-06T04:02:53.396Z,21.99
2019-03-06T04:03:53.378Z,21.99
2019-03-06T04:04:53.385Z,21.95
2019-03-06T04:05:53.353Z,21.95
2019-03-06T04:06:53.343Z,21.98
2019-03-06T04:07:53.333Z,21.92
2019-03-06T04:08:53.326Z,21.98
2019-03-06T04:09:53.310Z,21.98
2019-03-06T04:10:53.621Z,21.97
2019-03-06T04:11:53.286Z,21.98
2019-03-06T04:12:53.275Z,21.90
2019-03-06T04:13:53.266Z,21.91
2019-03-06T04:14:53.256Z,21.92
2019-03-06T04:15:53.246Z,21.98
2019-03-06T04:16:53.513Z,21.92
2019-03-06T04:17:53.221Z,21.90
2019-03-06T04:18:53.208Z,21.90
2019-03-06T04:19:53.199Z,21.88
2019-03-06T04:20:53.188Z,21.91
2019-03-06T04:21:53.177Z,21.92
2019-03-06T04:22:53.441Z,21.85
2019-03-06T04:23:53.155Z,21.92
2019-03-06T04:24:53.142Z,21.91
2019-03-06T04:25:53.133Z,21.85
2019-03-06T04:26:53.121Z,21.88
2019-03-06T04:27:53.113Z,21.91
2019-03-06T04:28:53.108Z,21.90
2019-03-06T04:29:53.088Z,21.85
2019-03-06T04:30:53.077Z,21.94
2019-03-06T04:31:53.065Z,21.92
2019-03-06T04:32:53.055Z,21.91
2019-03-06T04:33:53.045Z,21.90
2019-03-06T04:34:53.039Z,21.91
2019-03-06T04:35:53.021Z,21.83
2019-03-06T04:36:53.015Z,21.82
2019-03-06T04:37:52.999Z,21.88
2019-03-06T04:38:52.988Z,21.92
2019-03-06T04:39:52.978Z,21.90
2019-03-06T04:40:52.987Z,21.88
2019-03-06T04:41:52.954Z,21.82
2019-03-06T04:42:52.944Z,21.83
2019-03-06T04:43:52.935Z,21.83
2019-03-06T04:44:52.923Z,21.85
2019-03-06T04:45:52.911Z,21.94
2019-03-06T04:46:54.505Z,21.85
2019-03-06T04:47:52.895Z,21.82
2019-03-06T04:48:52.878Z,21.90
2019-03-06T04:49:53.156Z,21.90
2019-03-06T04:50:52.855Z,21.90
2019-03-06T04:51:52.844Z,21.88
2019-03-06T04:52:53.125Z,21.90
2019-03-06T04:53:52.822Z,21.85
2019-03-06T04:54:52.810Z,21.85
2019-03-06T04:55:52.800Z,21.85
2019-03-06T04:56:52.788Z,21.85
2019-03-06T04:57:52.778Z,21.82
2019-03-06T04:58:52.774Z,21.85
2019-03-06T04:59:52.756Z,21.90
2019-03-06T05:00:52.743Z,21.83
2019-03-06T05:01:52.734Z,21.85
2019-03-06T05:02:52.722Z,21.81
2019-03-06T05:03:52.712Z,21.91
2019-03-06T05:04:52.707Z,21.90
2019-03-06T05:05:52.690Z,21.81
2019-03-06T05:06:52.679Z,21.85
2019-03-06T05:07:52.667Z,21.83
2019-03-06T05:08:52.656Z,21.90
2019-03-06T05:09:52.645Z,21.82
2019-03-06T05:10:52.641Z,21.92
2019-03-06T05:11:52.623Z,21.81
2019-03-06T05:12:52.611Z,21.83
2019-03-06T05:13:52.600Z,21.83
2019-03-06T05:14:52.589Z,21.81
2019-03-06T05:15:52.578Z,21.85
2019-03-06T05:16:52.589Z,21.83
2019-03-06T05:17:52.556Z,21.83
2019-03-06T05:18:52.545Z,21.88
2019-03-06T05:19:52.534Z,21.85
2019-03-06T05:20:52.523Z,21.88
2019-03-06T05:21:52.512Z,21.83
2019-03-06T05:22:52.509Z,21.82
2019-03-06T05:23:52.489Z,21.82
2019-03-06T05:24:52.478Z,21.83
2019-03-06T05:25:52.467Z,21.85
2019-03-06T05:26:52.456Z,21.85
2019-03-06T05:27:52.446Z,21.83
2019-03-06T05:28:52.704Z,21.81
2019-03-06T05:29:52.422Z,21.85
2019-03-06T05:30:52.412Z,21.85
2019-03-06T05:31:52.402Z,21.83
2019-03-06T05:32:52.391Z,21.88
2019-03-06T05:33:52.379Z,21.88
2019-03-06T05:34:57.345Z,21.85
2019-03-06T05:35:52.358Z,21.82
2019-03-06T05:36:52.347Z,21.81
2019-03-06T05:37:52.335Z,21.88
2019-03-06T05:38:52.324Z,21.82
2019-03-06T05:39:52.312Z,21.82
2019-03-06T05:40:52.311Z,21.75
2019-03-06T05:41:52.290Z,21.83
2019-03-06T05:42:52.281Z,21.81
2019-03-06T05:43:52.267Z,21.85
2019-03-06T05:44:52.256Z,21.85
2019-03-06T05:45:52.245Z,21.88
2019-03-06T05:46:52.241Z,21.78
2019-03-06T05:47:52.224Z,21.79
2019-03-06T05:48:52.212Z,21.82
2019-03-06T05:49:52.202Z,21.82
2019-03-06T05:50:52.191Z,21.85
2019-03-06T05:51:52.181Z,21.82
2019-03-06T05:52:52.176Z,21.83
2019-03-06T05:53:52.164Z,21.81
2019-03-06T05:54:52.147Z,21.90
2019-03-06T05:55:52.135Z,21.90
2019-03-06T05:56:52.124Z,21.88
2019-03-06T05:57:52.113Z,21.83
2019-03-06T05:58:52.122Z,21.81
2019-03-06T05:59:52.092Z,21.91
2019-03-06T06:00:52.080Z,21.78
2019-03-06T06:01:52.069Z,21.83
2019-03-06T06:02:52.059Z,21.88
2019-03-06T06:03:52.047Z,21.85
2019-03-06T06:04:52.312Z,21.90
2019-03-06T06:05:52.026Z,21.81
2019-03-06T06:06:52.015Z,21.91
2019-03-06T06:07:52.004Z,21.85
2019-03-06T06:08:51.991Z,21.79
2019-03-06T06:09:51.982Z,21.88
2019-03-06T06:10:51.990Z,21.85
2019-03-06T06:11:51.959Z,21.88
2019-03-06T06:12:51.948Z,21.88
2019-03-06T06:13:51.939Z,21.88
2019-03-06T06:14:51.926Z,21.81
2019-03-06T06:15:51.916Z,21.83
2019-03-06T06:16:51.925Z,21.83
2019-03-06T06:17:51.892Z,21.83
2019-03-06T06:18:51.882Z,21.82
2019-03-06T06:19:51.870Z,21.82
2019-03-06T06:20:51.860Z,21.85
2019-03-06T06:21:51.849Z,21.81
2019-03-06T06:22:52.166Z,21.92
2019-03-06T06:23:51.883Z,21.82
2019-03-06T06:24:51.815Z,21.91
2019-03-06T06:25:51.807Z,21.88
2019-03-06T06:26:51.800Z,21.85
2019-03-06T06:27:51.781Z,21.88
2019-03-06T06:28:51.835Z,21.88
2019-03-06T06:29:51.760Z,21.88
2019-03-06T06:30:51.749Z,21.81
2019-03-06T06:31:51.736Z,21.85
2019-03-06T06:32:51.725Z,21.85
2019-03-06T06:33:51.716Z,21.83
2019-03-06T06:34:52.036Z,21.85
2019-03-06T06:35:51.694Z,21.79
2019-03-06T06:36:51.682Z,21.85
2019-03-06T06:37:51.670Z,21.83
2019-03-06T06:38:51.663Z,21.90
2019-03-06T06:39:51.648Z,21.83
2019-03-06T06:40:51.646Z,21.90
2019-03-06T06:41:51.626Z,21.85
2019-03-06T06:42:51.614Z,21.85
2019-03-06T06:43:51.656Z,21.85
2019-03-06T06:44:51.593Z,21.88
2019-03-06T06:45:51.582Z,21.83
2019-03-06T06:46:51.906Z,21.85
2019-03-06T06:47:51.559Z,21.82
2019-03-06T06:48:51.548Z,21.88
2019-03-06T06:49:51.537Z,21.88
2019-03-06T06:51:00.946Z,21.88
2019-03-06T06:51:52.789Z,21.91
2019-03-06T06:52:51.504Z,21.85
2019-03-06T06:53:51.498Z,21.83
2019-03-06T06:54:51.481Z,21.94
2019-03-06T06:55:51.471Z,21.91
2019-03-06T06:56:51.460Z,21.88
2019-03-06T06:57:51.455Z,21.91
2019-03-06T06:58:51.437Z,21.88
2019-03-06T06:59:51.426Z,21.88
2019-03-06T07:00:51.415Z,21.92
2019-03-06T07:01:51.406Z,21.85
2019-03-06T07:02:51.393Z,21.90
2019-03-06T07:03:51.406Z,21.94
2019-03-06T07:04:51.371Z,21.88
2019-03-06T07:05:51.360Z,21.90
2019-03-06T07:06:51.349Z,21.91
2019-03-06T07:07:51.337Z,21.91
2019-03-06T07:08:51.326Z,21.92
2019-03-06T07:09:51.326Z,21.95
2019-03-06T07:10:51.306Z,21.91
2019-03-06T07:11:51.294Z,21.92
2019-03-06T07:12:51.283Z,21.90
2019-03-06T07:13:51.272Z,21.98
2019-03-06T07:14:51.260Z,21.88
2019-03-06T07:15:51.528Z,21.88
2019-03-06T07:16:51.245Z,21.92
2019-03-06T07:17:51.227Z,21.95
2019-03-06T07:18:51.216Z,21.91
2019-03-06T07:19:51.205Z,21.94
2019-03-06T07:20:51.199Z,21.91
2019-03-06T07:21:51.207Z,21.85
2019-03-06T07:22:51.172Z,21.94
2019-03-06T07:23:51.161Z,21.95
2019-03-06T07:24:51.149Z,21.90
2019-03-06T07:25:51.138Z,22.01
2019-03-06T07:26:51.127Z,21.98
2019-03-06T07:27:51.384Z,21.97
2019-03-06T07:28:51.106Z,21.85
2019-03-06T07:29:51.096Z,21.99
2019-03-06T07:30:51.085Z,21.99
2019-03-06T07:31:51.073Z,21.90
2019-03-06T07:32:51.061Z,21.94
2019-03-06T07:33:51.328Z,21.97
2019-03-06T07:34:51.039Z,21.97
2019-03-06T07:35:51.029Z,21.98
2019-03-06T07:36:51.018Z,22.01
2019-03-06T07:37:51.006Z,21.98
2019-03-06T07:38:50.994Z,21.98
2019-03-06T07:39:50.995Z,21.98
2019-03-06T07:40:50.973Z,21.98
2019-03-06T07:41:50.962Z,21.95
2019-03-06T07:42:50.951Z,22.01
2019-03-06T07:43:50.940Z,21.90
2019-03-06T07:44:50.932Z,21.98
2019-03-06T07:45:51.203Z,21.97
2019-03-06T07:46:50.907Z,21.97
2019-03-06T07:47:50.896Z,22.01
2019-03-06T07:48:50.884Z,22.02
2019-03-06T07:49:50.875Z,22.01
2019-03-06T07:50:50.863Z,21.98
2019-03-06T07:51:51.131Z,21.99
2019-03-06T07:52:50.840Z,21.97
2019-03-06T07:53:50.829Z,21.94
2019-03-06T07:54:50.817Z,21.95
2019-03-06T07:55:50.808Z,21.95
2019-03-06T07:56:50.798Z,22.02
2019-03-06T07:57:50.792Z,21.98
2019-03-06T07:58:50.774Z,21.97
2019-03-06T07:59:50.763Z,21.94
2019-03-06T08:00:50.752Z,22.01
2019-03-06T08:01:50.740Z,21.99
2019-03-06T08:02:50.729Z,21.97
2019-03-06T08:03:50.995Z,21.95
2019-03-06T08:04:50.707Z,21.95
2019-03-06T08:05:50.696Z,21.97
2019-03-06T08:06:50.686Z,22.02
2019-03-06T08:07:50.674Z,22.01
2019-03-06T08:08:50.670Z,21.94
2019-03-06T08:09:50.924Z,21.98
2019-03-06T08:10:50.642Z,21.95
2019-03-06T08:11:50.629Z,21.94
2019-03-06T08:12:50.619Z,21.99
2019-03-06T08:13:50.607Z,21.97
2019-03-06T08:14:50.596Z,21.98
2019-03-06T08:15:50.873Z,22.01
2019-03-06T08:16:50.576Z,21.99
2019-03-06T08:17:50.564Z,22.01
2019-03-06T08:18:50.552Z,22.02
2019-03-06T08:19:50.540Z,21.97
2019-03-06T08:20:50.536Z,21.95
2019-03-06T08:21:50.809Z,21.97
2019-03-06T08:22:50.508Z,21.95
2019-03-06T08:23:50.503Z,21.99
2019-03-06T08:24:50.491Z,21.99
2019-03-06T08:25:50.475Z,21.98
2019-03-06T08:26:50.464Z,21.94
2019-03-06T08:27:50.736Z,21.97
2019-03-06T08:28:50.442Z,21.98
2019-03-06T08:29:50.430Z,21.94
2019-03-06T08:30:50.421Z,21.92
2019-03-06T08:31:50.410Z,22.02
2019-03-06T08:32:50.396Z,21.97
2019-03-06T08:33:50.665Z,22.02
2019-03-06T08:34:50.376Z,21.94
2019-03-06T08:35:50.364Z,22.02
2019-03-06T08:36:50.353Z,22.07
2019-03-06T08:37:50.342Z,21.99
2019-03-06T08:38:50.331Z,22.09
2019-03-06T08:39:50.606Z,22.04
2019-03-06T08:40:50.309Z,22.06
2019-03-06T08:41:50.298Z,22.10
2019-03-06T08:42:50.287Z,22.10
2019-03-06T08:43:50.277Z,22.06
2019-03-06T08:44:50.266Z,22.10
2019-03-06T08:45:50.531Z,22.06
2019-03-06T08:46:50.242Z,22.16
2019-03-06T08:47:51.748Z,22.13
2019-03-06T08:48:50.220Z,22.17
2019-03-06T08:49:50.209Z,22.07
2019-03-06T08:50:50.197Z,22.06
2019-03-06T08:51:50.464Z,22.13
2019-03-06T08:52:50.176Z,22.12
2019-03-06T08:53:50.168Z,22.02
2019-03-06T08:54:50.153Z,22.14
2019-03-06T08:55:50.143Z,22.14
2019-03-06T08:56:50.132Z,22.06
2019-03-06T08:57:50.394Z,22.13
2019-03-06T08:58:50.111Z,22.12
2019-03-06T08:59:50.099Z,22.16
2019-03-06T09:00:50.087Z,22.13
2019-03-06T09:01:57.182Z,22.16
2019-03-06T09:02:51.086Z,22.13
2019-03-06T09:03:50.054Z,22.10
2019-03-06T09:04:50.042Z,22.10
2019-03-06T09:05:50.040Z,22.12
2019-03-06T09:06:50.021Z,22.17
2019-03-06T09:07:50.010Z,22.16
2019-03-06T09:08:50.272Z,22.23
2019-03-06T09:09:49.986Z,22.12
2019-03-06T09:10:49.977Z,22.25
2019-03-06T09:11:49.964Z,22.22
2019-03-06T09:12:49.955Z,22.22
2019-03-06T09:13:49.943Z,22.23
2019-03-06T09:14:50.207Z,22.22
2019-03-06T09:15:49.924Z,22.23
2019-03-06T09:16:49.914Z,22.31
2019-03-06T09:17:49.898Z,22.31
2019-03-06T09:18:49.889Z,22.29
2019-03-06T09:19:49.877Z,22.28
2019-03-06T09:20:50.137Z,22.27
2019-03-06T09:21:49.855Z,22.25
2019-03-06T09:22:49.846Z,22.23
2019-03-06T09:23:49.834Z,22.28
2019-03-06T09:24:49.821Z,22.29
2019-03-06T09:25:49.813Z,22.29
2019-03-06T09:26:50.143Z,22.31
2019-03-06T09:27:49.789Z,22.25
2019-03-06T09:28:49.778Z,22.27
2019-03-06T09:29:49.766Z,22.37
2019-03-06T09:30:49.757Z,22.35
2019-03-06T09:31:49.744Z,22.37
2019-03-06T09:32:50.013Z,22.37
2019-03-06T09:33:49.723Z,22.35
2019-03-06T09:34:49.713Z,22.41
2019-03-06T09:35:49.699Z,22.38
2019-03-06T09:36:49.694Z,22.46
2019-03-06T09:37:49.678Z,22.43
2019-03-06T09:38:49.688Z,22.43
2019-03-06T09:39:49.655Z,22.46
2019-03-06T09:40:49.645Z,22.41
2019-03-06T09:41:49.633Z,22.44
2019-03-06T09:42:49.622Z,22.49
2019-03-06T09:43:49.611Z,22.44
2019-03-06T09:44:49.898Z,22.46
2019-03-06T09:45:49.589Z,22.53
2019-03-06T09:46:49.577Z,22.52
2019-03-06T09:47:49.567Z,22.52
2019-03-06T09:48:49.555Z,22.56
2019-03-06T09:49:49.545Z,22.56
2019-03-06T09:50:49.813Z,22.57
2019-03-06T09:51:49.522Z,22.57
2019-03-06T09:52:49.524Z,22.60
2019-03-06T09:53:49.503Z,22.59
2019-03-06T09:54:49.510Z,22.57
2019-03-06T09:55:49.479Z,22.54
2019-03-06T09:56:49.497Z,22.50
2019-03-06T09:57:49.456Z,22.60
2019-03-06T09:58:49.445Z,22.62
2019-03-06T09:59:49.437Z,22.57
2019-03-06T10:00:49.424Z,22.67
2019-03-06T10:01:49.413Z,22.71
2019-03-06T10:02:49.681Z,22.71
2019-03-06T10:03:49.395Z,22.65
2019-03-06T10:04:49.380Z,22.69
2019-03-06T10:05:49.369Z,22.69
2019-03-06T10:06:49.357Z,22.69
2019-03-06T10:07:49.347Z,22.69
2019-03-06T10:08:49.358Z,22.78
2019-03-06T10:09:58.703Z,22.77
2019-03-06T10:10:57.311Z,22.83
2019-03-06T10:11:50.300Z,22.77
2019-03-06T10:12:49.290Z,22.78
2019-03-06T10:13:49.279Z,22.78
2019-03-06T10:14:49.275Z,22.84
2019-03-06T10:15:49.257Z,22.83
2019-03-06T10:16:49.246Z,22.84
2019-03-06T10:17:49.235Z,22.89
2019-03-06T10:18:49.224Z,22.82
2019-03-06T10:19:49.213Z,22.82
2019-03-06T10:20:49.222Z,22.84
2019-03-06T10:21:49.190Z,22.94
2019-03-06T10:22:49.196Z,22.87
2019-03-06T10:23:49.171Z,22.90
2019-03-06T10:24:49.158Z,22.94
2019-03-06T10:25:49.148Z,22.89
2019-03-06T10:26:49.149Z,22.96
2019-03-06T10:27:49.124Z,22.99
2019-03-06T10:28:49.113Z,22.96
2019-03-06T10:29:49.102Z,22.94
2019-03-06T10:30:49.092Z,23.01
2019-03-06T10:31:49.080Z,23.04
2019-03-06T10:32:49.360Z,22.99
2019-03-06T10:33:49.061Z,23.12
2019-03-06T10:34:49.048Z,23.07
2019-03-06T10:35:49.036Z,23.09
2019-03-06T10:36:49.025Z,23.15
2019-03-06T10:37:49.016Z,23.09
2019-03-06T10:38:49.355Z,23.19
2019-03-06T10:39:48.991Z,23.15
2019-03-06T10:40:48.981Z,23.19
2019-03-06T10:41:48.970Z,23.22
2019-03-06T10:42:48.958Z,23.19
2019-03-06T10:43:49.680Z,23.22
2019-03-06T10:44:49.409Z,23.34
2019-03-06T10:45:48.926Z,23.32
2019-03-06T10:46:48.916Z,23.31
2019-03-06T10:47:48.904Z,23.29
2019-03-06T10:48:48.895Z,23.43
2019-03-06T10:49:48.881Z,23.42
2019-03-06T10:50:48.892Z,23.46
2019-03-06T10:51:48.861Z,23.50
2019-03-06T10:52:48.848Z,23.47
2019-03-06T10:53:48.838Z,23.46
2019-03-06T10:54:48.829Z,23.46
2019-03-06T10:55:48.814Z,23.43
2019-03-06T10:56:48.810Z,23.53
2019-03-06T10:57:48.794Z,23.57
2019-03-06T10:58:48.784Z,23.50
2019-03-06T10:59:48.770Z,23.58
2019-03-06T11:00:48.763Z,23.58
2019-03-06T11:01:48.749Z,23.57
2019-03-06T11:02:48.762Z,23.62
2019-03-06T11:03:48.727Z,23.61
2019-03-06T11:04:48.715Z,23.64
2019-03-06T11:05:48.704Z,23.64
2019-03-06T11:06:48.693Z,23.70
2019-03-06T11:07:48.684Z,23.70
2019-03-06T11:08:48.743Z,23.70
2019-03-06T11:09:48.661Z,23.68
2019-03-06T11:10:48.653Z,23.70
2019-03-06T11:11:48.640Z,23.76
2019-03-06T11:12:48.627Z,23.71
2019-03-06T11:13:48.616Z,23.65
2019-03-06T11:14:48.639Z,23.64
2019-03-06T11:15:55.336Z,23.68
2019-03-06T11:16:49.602Z,23.76
2019-03-06T11:17:48.571Z,23.72
2019-03-06T11:18:48.564Z,23.75
2019-03-06T11:19:48.552Z,23.75
2019-03-06T11:20:48.865Z,23.72
2019-03-06T11:21:48.532Z,23.72
2019-03-06T11:22:48.520Z,23.72
2019-03-06T11:23:48.513Z,23.68
2019-03-06T11:24:48.495Z,23.77
2019-03-06T11:25:48.492Z,23.77
2019-03-06T11:26:48.492Z,23.71
2019-03-06T11:27:48.462Z,23.76
2019-03-06T11:28:48.455Z,23.71
2019-03-06T11:29:48.438Z,23.83
2019-03-06T11:30:48.431Z,23.72
2019-03-06T11:31:48.417Z,23.72
2019-03-06T11:32:54.421Z,23.77
2019-03-06T11:33:49.393Z,23.77
2019-03-06T11:34:48.385Z,23.82
2019-03-06T11:35:48.372Z,23.85
2019-03-06T11:36:48.363Z,23.79
2019-03-06T11:37:48.351Z,23.80
2019-03-06T11:38:48.366Z,23.79
2019-03-06T11:39:48.329Z,23.89
2019-03-06T11:40:48.319Z,23.87
2019-03-06T11:41:48.307Z,23.92
2019-03-06T11:42:48.296Z,23.82
2019-03-06T11:43:48.284Z,23.90
2019-03-06T11:44:48.281Z,23.94
2019-03-06T11:45:48.263Z,23.92
2019-03-06T11:46:48.256Z,23.83
2019-03-06T11:47:48.241Z,23.86
2019-03-06T11:48:48.228Z,23.86
2019-03-06T11:49:48.218Z,23.92
2019-03-06T11:50:48.214Z,23.92
2019-03-06T11:51:48.197Z,23.97
2019-03-06T11:52:48.185Z,23.92
2019-03-06T11:53:48.174Z,24.02
2019-03-06T11:54:48.249Z,23.95
2019-03-06T11:55:48.151Z,24.01
2019-03-06T11:56:48.431Z,24.01
2019-03-06T11:57:48.129Z,24.00
2019-03-06T11:58:48.119Z,23.98
2019-03-06T11:59:48.108Z,24.01
2019-03-06T12:00:48.097Z,24.02
2019-03-06T12:01:48.452Z,24.05
2019-03-06T12:02:48.744Z,24.04
2019-03-06T12:03:48.065Z,24.04
2019-03-06T12:04:48.052Z,24.01
2019-03-06T12:05:48.042Z,24.04
2019-03-06T12:06:48.034Z,24.02
2019-03-06T12:07:48.041Z,24.05
2019-03-06T12:08:48.020Z,24.16
2019-03-06T12:09:47.997Z,24.19
2019-03-06T12:10:47.988Z,24.14
2019-03-06T12:11:47.975Z,24.16
2019-03-06T12:12:47.963Z,24.22
2019-03-06T12:13:47.953Z,24.23
2019-03-06T12:14:48.233Z,24.29
2019-03-06T12:15:47.931Z,24.31
2019-03-06T12:16:47.920Z,24.29
2019-03-06T12:17:47.909Z,24.41
2019-03-06T12:18:47.897Z,24.54
2019-03-06T12:19:48.364Z,24.68
2019-03-06T12:20:48.162Z,24.67
2019-03-06T12:21:47.864Z,24.68
2019-03-06T12:22:47.853Z,24.77
2019-03-06T12:23:47.843Z,24.82
2019-03-06T12:24:47.833Z,24.87
2019-03-06T12:25:47.837Z,24.88
2019-03-06T12:26:47.820Z,24.88
2019-03-06T12:27:47.798Z,24.85
2019-03-06T12:28:47.788Z,24.94
2019-03-06T12:29:47.776Z,24.91
2019-03-06T12:30:47.766Z,24.94
2019-03-06T12:31:47.754Z,24.98
2019-03-06T12:32:47.756Z,24.87
2019-03-06T12:33:47.733Z,24.90
2019-03-06T12:34:47.722Z,24.83
2019-03-06T12:35:47.711Z,24.77
2019-03-06T12:36:47.698Z,24.69
2019-03-06T12:37:47.688Z,24.82
2019-03-06T12:38:47.949Z,24.76
2019-03-06T12:39:47.666Z,24.69
2019-03-06T12:40:47.656Z,24.77
2019-03-06T12:41:47.645Z,24.64
2019-03-06T12:42:47.635Z,24.77
2019-03-06T12:43:47.624Z,24.67
2019-03-06T12:44:47.620Z,24.60
2019-03-06T12:45:47.602Z,24.64
2019-03-06T12:46:47.589Z,24.67
2019-03-06T12:47:55.135Z,24.73
2019-03-06T12:48:48.566Z,24.64
2019-03-06T12:49:47.562Z,24.64
2019-03-06T12:50:55.213Z,24.68
2019-03-06T12:51:54.519Z,24.67
2019-03-06T12:52:48.523Z,24.64